sensor_id;sensor_type;location;lat;lon;timestamp;temperature;humidity
17146;DHT22;8688;54.444;18.444;2024-01-15T00:04:01;1.70;1.00
17146;DHT22;8688;54.444;18.444;2024-01-15T00:06:28;1.60;1.00
17146;DHT22;8688;54.444;18.444;2024-01-15T00:08:56;1.60;1.00
17146;DHT22;8688;54.444;18.444;2024-01-15T00:11:25;1.50;1.00
17146;DHT22;8688;54.444;18.444;2024-01-15T00:13:54;1.50;1.00
17146;DHT22;8688;54.444;18.444;2024-01-15T00:16:22;1.50;1.00
17146;DHT22;8688;54.444;18.444;2024-01-15T00:18:49;1.50;1.00
17146;DHT22;8688;54.444;18.444;2024-01-15T00:21:16;1.60;1.00
17146;DHT22;8688;54.444;18.444;2024-01-15T00:23:44;1.60;1.00
17146;DHT22;8688;54.444;18.444;2024-01-15T00:26:12;1.60;1.00
17146;DHT22;8688;54.444;18.444;2024-01-15T00:28:41;1.60;1.00
17146;DHT22;8688;54.444;18.444;2024-01-15T00:31:08;1.60;1.00
17146;DHT22;8688;54.444;18.444;2024-01-15T00:33:35;1.60;1.00
17146;DHT22;8688;54.444;18.444;2024-01-15T00:36:03;1.60;1.00
17146;DHT22;8688;54.444;18.444;2024-01-15T00:38:31;1.60;1.00
17146;DHT22;8688;54.444;18.444;2024-01-15T00:40:59;1.60;1.00
17146;DHT22;8688;54.444;18.444;2024-01-15T00:43:26;1.60;1.00
17146;DHT22;8688;54.444;18.444;2024-01-15T00:45:55;1.60;1.00
17146;DHT22;8688;54.444;18.444;2024-01-15T00:48:23;1.60;1.00
17146;DHT22;8688;54.444;18.444;2024-01-15T00:50:50;1.60;1.00
17146;DHT22;8688;54.444;18.444;2024-01-15T00:53:17;1.60;1.00
17146;DHT22;8688;54.444;18.444;2024-01-15T00:55:45;1.60;1.00
17146;DHT22;8688;54.444;18.444;2024-01-15T00:58:13;1.60;99.90
17146;DHT22;8688;54.444;18.444;2024-01-15T01:00:40;1.60;1.00
17146;DHT22;8688;54.444;18.444;2024-01-15T01:03:09;1.60;99.90
17146;DHT22;8688;54.444;18.444;2024-01-15T01:05:37;1.60;99.90
17146;DHT22;8688;54.444;18.444;2024-01-15T01:08:05;1.60;99.90
17146;DHT22;8688;54.444;18.444;2024-01-15T01:10:32;1.60;99.90
17146;DHT22;8688;54.444;18.444;2024-01-15T01:12:59;1.60;99.90
17146;DHT22;8688;54.444;18.444;2024-01-15T01:15:27;1.60;99.90
17146;DHT22;8688;54.444;18.444;2024-01-15T01:17:54;1.60;99.90
17146;DHT22;8688;54.444;18.444;2024-01-15T01:20:23;1.50;99.90
17146;DHT22;8688;54.444;18.444;2024-01-15T01:22:51;1.50;99.90
17146;DHT22;8688;54.444;18.444;2024-01-15T01:25:18;1.50;99.90
17146;DHT22;8688;54.444;18.444;2024-01-15T01:27:45;1.50;99.90
17146;DHT22;8688;54.444;18.444;2024-01-15T01:30:13;1.50;99.90
17146;DHT22;8688;54.444;18.444;2024-01-15T01:32:40;1.50;99.90
17146;DHT22;8688;54.444;18.444;2024-01-15T01:35:08;1.50;99.90
17146;DHT22;8688;54.444;18.444;2024-01-15T01:37:37;1.60;99.90
17146;DHT22;8688;54.444;18.444;2024-01-15T01:40:05;1.60;99.90
17146;DHT22;8688;54.444;18.444;2024-01-15T01:42:33;1.60;99.90
17146;DHT22;8688;54.444;18.444;2024-01-15T01:45:00;1.60;99.90
17146;DHT22;8688;54.444;18.444;2024-01-15T01:47:29;1.50;99.90
17146;DHT22;8688;54.444;18.444;2024-01-15T01:49:57;1.60;99.90
17146;DHT22;8688;54.444;18.444;2024-01-15T01:52:24;1.60;99.90
17146;DHT22;8688;54.444;18.444;2024-01-15T01:54:54;1.60;99.90
17146;DHT22;8688;54.444;18.444;2024-01-15T01:57:21;1.60;99.90
17146;DHT22;8688;54.444;18.444;2024-01-15T01:59:49;1.50;99.90
17146;DHT22;8688;54.444;18.444;2024-01-15T02:02:18;1.50;1.00
17146;DHT22;8688;54.444;18.444;2024-01-15T02:04:47;1.50;1.00
17146;DHT22;8688;54.444;18.444;2024-01-15T02:07:15;1.50;1.00
17146;DHT22;8688;54.444;18.444;2024-01-15T02:09:44;1.40;1.00
17146;DHT22;8688;54.444;18.444;2024-01-15T02:12:13;1.40;1.00
17146;DHT22;8688;54.444;18.444;2024-01-15T02:14:40;1.40;1.00
17146;DHT22;8688;54.444;18.444;2024-01-15T02:17:08;1.40;1.00
17146;DHT22;8688;54.444;18.444;2024-01-15T02:19:35;1.40;1.00
17146;DHT22;8688;54.444;18.444;2024-01-15T02:22:05;1.40;1.00
17146;DHT22;8688;54.444;18.444;2024-01-15T02:24:34;1.30;1.00
17146;DHT22;8688;54.444;18.444;2024-01-15T02:27:01;1.40;1.00
17146;DHT22;8688;54.444;18.444;2024-01-15T02:29:29;1.40;1.00
17146;DHT22;8688;54.444;18.444;2024-01-15T02:31:57;1.30;1.00
17146;DHT22;8688;54.444;18.444;2024-01-15T02:34:24;1.30;1.00
17146;DHT22;8688;54.444;18.444;2024-01-15T02:36:51;1.30;1.00
17146;DHT22;8688;54.444;18.444;2024-01-15T02:39:19;1.30;1.00
17146;DHT22;8688;54.444;18.444;2024-01-15T02:41:48;1.30;1.00
17146;DHT22;8688;54.444;18.444;2024-01-15T02:44:15;1.20;1.00
17146;DHT22;8688;54.444;18.444;2024-01-15T02:46:42;1.20;1.00
17146;DHT22;8688;54.444;18.444;2024-01-15T02:49:10;1.20;1.00
17146;DHT22;8688;54.444;18.444;2024-01-15T02:51:37;1.20;1.00
17146;DHT22;8688;54.444;18.444;2024-01-15T02:54:04;1.20;1.00
17146;DHT22;8688;54.444;18.444;2024-01-15T02:56:32;1.20;1.00
17146;DHT22;8688;54.444;18.444;2024-01-15T02:59:01;1.20;1.00
17146;DHT22;8688;54.444;18.444;2024-01-15T03:01:28;1.20;1.00
17146;DHT22;8688;54.444;18.444;2024-01-15T03:03:55;1.20;1.00
17146;DHT22;8688;54.444;18.444;2024-01-15T03:06:23;1.10;1.00
17146;DHT22;8688;54.444;18.444;2024-01-15T03:08:50;1.20;1.00
17146;DHT22;8688;54.444;18.444;2024-01-15T03:11:17;1.10;1.00
17146;DHT22;8688;54.444;18.444;2024-01-15T03:13:45;1.10;1.00
17146;DHT22;8688;54.444;18.444;2024-01-15T03:16:14;1.10;1.00
17146;DHT22;8688;54.444;18.444;2024-01-15T03:18:41;1.10;1.00
17146;DHT22;8688;54.444;18.444;2024-01-15T03:21:08;1.10;1.00
17146;DHT22;8688;54.444;18.444;2024-01-15T03:23:36;1.10;1.00
17146;DHT22;8688;54.444;18.444;2024-01-15T03:26:03;1.10;1.00
17146;DHT22;8688;54.444;18.444;2024-01-15T03:28:31;1.10;1.00
17146;DHT22;8688;54.444;18.444;2024-01-15T03:30:58;1.10;1.00
17146;DHT22;8688;54.444;18.444;2024-01-15T03:33:27;1.10;1.00
17146;DHT22;8688;54.444;18.444;2024-01-15T03:35:55;1.10;1.00
17146;DHT22;8688;54.444;18.444;2024-01-15T03:38:23;1.10;4.70
17146;DHT22;8688;54.444;18.444;2024-01-15T03:40:50;1.10;8.50
17146;DHT22;8688;54.444;18.444;2024-01-15T03:43:18;1.10;16.40
17146;DHT22;8688;54.444;18.444;2024-01-15T03:45:45;1.10;23.60
17146;DHT22;8688;54.444;18.444;2024-01-15T03:48:13;1.10;30.00
17146;DHT22;8688;54.444;18.444;2024-01-15T03:50:42;1.10;36.60
17146;DHT22;8688;54.444;18.444;2024-01-15T03:53:09;1.10;40.80
17146;DHT22;8688;54.444;18.444;2024-01-15T03:55:36;1.10;48.40
17146;DHT22;8688;54.444;18.444;2024-01-15T03:58:04;1.10;64.70
17146;DHT22;8688;54.444;18.444;2024-01-15T04:00:31;1.10;79.90
17146;DHT22;8688;54.444;18.444;2024-01-15T04:02:59;1.10;88.80
17146;DHT22;8688;54.444;18.444;2024-01-15T04:05:26;1.10;90.10
17146;DHT22;8688;54.444;18.444;2024-01-15T04:07:55;1.10;91.40
17146;DHT22;8688;54.444;18.444;2024-01-15T04:10:22;1.10;93.50
17146;DHT22;8688;54.444;18.444;2024-01-15T04:12:50;1.10;95.50
17146;DHT22;8688;54.444;18.444;2024-01-15T04:15:17;1.10;97.10
17146;DHT22;8688;54.444;18.444;2024-01-15T04:17:44;1.10;97.10
17146;DHT22;8688;54.444;18.444;2024-01-15T04:20:12;1.10;98.30
17146;DHT22;8688;54.444;18.444;2024-01-15T04:22:39;1.10;99.90
17146;DHT22;8688;54.444;18.444;2024-01-15T04:25:08;1.10;99.90
17146;DHT22;8688;54.444;18.444;2024-01-15T04:27:36;1.10;99.90
17146;DHT22;8688;54.444;18.444;2024-01-15T04:30:04;1.10;99.90
17146;DHT22;8688;54.444;18.444;2024-01-15T04:32:32;1.10;99.90
17146;DHT22;8688;54.444;18.444;2024-01-15T04:34:59;1.10;99.90
17146;DHT22;8688;54.444;18.444;2024-01-15T04:37:26;1.10;99.90
17146;DHT22;8688;54.444;18.444;2024-01-15T04:39:54;1.10;99.90
17146;DHT22;8688;54.444;18.444;2024-01-15T04:42:24;1.10;99.90
17146;DHT22;8688;54.444;18.444;2024-01-15T04:44:52;1.10;99.90
17146;DHT22;8688;54.444;18.444;2024-01-15T04:47:19;1.10;99.90
17146;DHT22;8688;54.444;18.444;2024-01-15T04:49:47;1.10;99.90
17146;DHT22;8688;54.444;18.444;2024-01-15T04:52:15;1.10;99.90
17146;DHT22;8688;54.444;18.444;2024-01-15T04:54:42;1.10;99.90
17146;DHT22;8688;54.444;18.444;2024-01-15T04:57:09;1.10;99.90
17146;DHT22;8688;54.444;18.444;2024-01-15T04:59:38;1.10;99.90
17146;DHT22;8688;54.444;18.444;2024-01-15T05:02:06;1.10;99.90
17146;DHT22;8688;54.444;18.444;2024-01-15T05:04:34;1.10;99.90
17146;DHT22;8688;54.444;18.444;2024-01-15T05:07:01;1.10;99.90
17146;DHT22;8688;54.444;18.444;2024-01-15T05:09:29;1.10;99.90
17146;DHT22;8688;54.444;18.444;2024-01-15T05:11:56;1.20;99.90
17146;DHT22;8688;54.444;18.444;2024-01-15T05:14:23;1.10;99.90
17146;DHT22;8688;54.444;18.444;2024-01-15T05:16:52;1.10;99.90
17146;DHT22;8688;54.444;18.444;2024-01-15T05:19:20;1.10;95.50
17146;DHT22;8688;54.444;18.444;2024-01-15T05:21:47;1.10;87.70
17146;DHT22;8688;54.444;18.444;2024-01-15T05:24:14;1.00;46.90
17146;DHT22;8688;54.444;18.444;2024-01-15T05:26:42;1.00;30.70
17146;DHT22;8688;54.444;18.444;2024-01-15T05:29:09;1.00;16.30
17146;DHT22;8688;54.444;18.444;2024-01-15T05:31:36;1.00;3.50
17146;DHT22;8688;54.444;18.444;2024-01-15T05:34:05;0.90;1.00
17146;DHT22;8688;54.444;18.444;2024-01-15T05:36:32;0.90;1.00
17146;DHT22;8688;54.444;18.444;2024-01-15T05:39:00;0.90;1.00
17146;DHT22;8688;54.444;18.444;2024-01-15T05:41:28;0.90;1.00
17146;DHT22;8688;54.444;18.444;2024-01-15T05:43:56;0.90;1.00
17146;DHT22;8688;54.444;18.444;2024-01-15T05:46:23;0.80;1.00
17146;DHT22;8688;54.444;18.444;2024-01-15T05:48:50;0.80;1.00
17146;DHT22;8688;54.444;18.444;2024-01-15T05:51:19;0.70;1.00
17146;DHT22;8688;54.444;18.444;2024-01-15T05:53:46;0.60;1.00
17146;DHT22;8688;54.444;18.444;2024-01-15T05:56:14;0.50;1.00
17146;DHT22;8688;54.444;18.444;2024-01-15T05:58:41;0.50;1.00
17146;DHT22;8688;54.444;18.444;2024-01-15T06:01:09;0.50;1.00
17146;DHT22;8688;54.444;18.444;2024-01-15T06:03:36;0.50;1.00
17146;DHT22;8688;54.444;18.444;2024-01-15T06:06:04;0.40;1.00
17146;DHT22;8688;54.444;18.444;2024-01-15T06:08:33;0.40;1.00
17146;DHT22;8688;54.444;18.444;2024-01-15T06:11:00;0.40;1.00
17146;DHT22;8688;54.444;18.444;2024-01-15T06:13:28;0.40;1.00
17146;DHT22;8688;54.444;18.444;2024-01-15T06:15:55;0.40;1.00
17146;DHT22;8688;54.444;18.444;2024-01-15T06:18:22;0.30;1.00
17146;DHT22;8688;54.444;18.444;2024-01-15T06:20:50;0.30;1.00
17146;DHT22;8688;54.444;18.444;2024-01-15T06:23:17;0.30;1.00
17146;DHT22;8688;54.444;18.444;2024-01-15T06:25:46;0.40;1.00
17146;DHT22;8688;54.444;18.444;2024-01-15T06:28:13;0.40;1.00
17146;DHT22;8688;54.444;18.444;2024-01-15T06:30:40;0.30;1.00
17146;DHT22;8688;54.444;18.444;2024-01-15T06:33:08;0.40;1.00
17146;DHT22;8688;54.444;18.444;2024-01-15T06:35:35;0.40;1.00
17146;DHT22;8688;54.444;18.444;2024-01-15T06:38:02;0.40;1.00
17146;DHT22;8688;54.444;18.444;2024-01-15T06:40:30;0.40;1.00
17146;DHT22;8688;54.444;18.444;2024-01-15T06:42:59;0.40;1.00
17146;DHT22;8688;54.444;18.444;2024-01-15T06:45:26;0.40;1.00
17146;DHT22;8688;54.444;18.444;2024-01-15T06:47:53;0.40;1.00
17146;DHT22;8688;54.444;18.444;2024-01-15T06:50:20;0.50;1.00
17146;DHT22;8688;54.444;18.444;2024-01-15T06:52:48;0.40;1.00
17146;DHT22;8688;54.444;18.444;2024-01-15T06:55:15;0.40;1.00
17146;DHT22;8688;54.444;18.444;2024-01-15T06:57:43;0.50;1.00
17146;DHT22;8688;54.444;18.444;2024-01-15T07:00:13;0.50;1.00
17146;DHT22;8688;54.444;18.444;2024-01-15T07:02:40;0.40;1.00
17146;DHT22;8688;54.444;18.444;2024-01-15T07:05:08;0.40;1.00
17146;DHT22;8688;54.444;18.444;2024-01-15T07:07:35;0.40;1.00
17146;DHT22;8688;54.444;18.444;2024-01-15T07:10:03;0.40;1.00
17146;DHT22;8688;54.444;18.444;2024-01-15T07:12:31;0.40;1.00
17146;DHT22;8688;54.444;18.444;2024-01-15T07:14:58;0.50;1.00
17146;DHT22;8688;54.444;18.444;2024-01-15T07:17:27;0.50;1.00
17146;DHT22;8688;54.444;18.444;2024-01-15T07:19:55;0.50;1.00
17146;DHT22;8688;54.444;18.444;2024-01-15T07:22:23;0.50;1.00
17146;DHT22;8688;54.444;18.444;2024-01-15T07:24:51;0.50;1.00
17146;DHT22;8688;54.444;18.444;2024-01-15T07:27:18;0.50;1.00
17146;DHT22;8688;54.444;18.444;2024-01-15T07:29:45;0.50;1.00
17146;DHT22;8688;54.444;18.444;2024-01-15T07:32:23;0.50;1.00
17146;DHT22;8688;54.444;18.444;2024-01-15T07:34:52;0.50;1.00
17146;DHT22;8688;54.444;18.444;2024-01-15T07:37:19;0.50;1.00
17146;DHT22;8688;54.444;18.444;2024-01-15T07:39:46;0.50;1.00
17146;DHT22;8688;54.444;18.444;2024-01-15T07:42:14;0.50;1.00
17146;DHT22;8688;54.444;18.444;2024-01-15T07:44:41;0.50;1.00
17146;DHT22;8688;54.444;18.444;2024-01-15T07:47:08;0.60;1.00
17146;DHT22;8688;54.444;18.444;2024-01-15T07:49:36;0.60;1.00
17146;DHT22;8688;54.444;18.444;2024-01-15T07:52:05;0.70;1.00
17146;DHT22;8688;54.444;18.444;2024-01-15T07:54:32;0.70;1.00
17146;DHT22;8688;54.444;18.444;2024-01-15T07:57:00;0.80;1.00
17146;DHT22;8688;54.444;18.444;2024-01-15T07:59:29;0.80;1.00
17146;DHT22;8688;54.444;18.444;2024-01-15T08:01:57;0.90;1.00
17146;DHT22;8688;54.444;18.444;2024-01-15T08:04:25;0.90;1.00
17146;DHT22;8688;54.444;18.444;2024-01-15T08:06:53;0.90;1.00
17146;DHT22;8688;54.444;18.444;2024-01-15T08:09:21;0.90;1.00
17146;DHT22;8688;54.444;18.444;2024-01-15T08:11:50;0.90;1.00
17146;DHT22;8688;54.444;18.444;2024-01-15T08:14:18;0.90;1.00
17146;DHT22;8688;54.444;18.444;2024-01-15T08:16:45;1.00;1.00
17146;DHT22;8688;54.444;18.444;2024-01-15T08:19:12;0.90;1.00
17146;DHT22;8688;54.444;18.444;2024-01-15T08:21:40;0.90;1.00
17146;DHT22;8688;54.444;18.444;2024-01-15T08:24:08;0.90;1.00
17146;DHT22;8688;54.444;18.444;2024-01-15T08:26:37;0.90;1.00
17146;DHT22;8688;54.444;18.444;2024-01-15T08:29:04;0.90;1.00
17146;DHT22;8688;54.444;18.444;2024-01-15T08:31:32;1.00;1.00
17146;DHT22;8688;54.444;18.444;2024-01-15T08:33:59;1.00;1.00
17146;DHT22;8688;54.444;18.444;2024-01-15T08:36:28;1.00;1.00
17146;DHT22;8688;54.444;18.444;2024-01-15T08:38:56;1.00;1.00
17146;DHT22;8688;54.444;18.444;2024-01-15T08:41:24;1.10;1.00
17146;DHT22;8688;54.444;18.444;2024-01-15T08:43:52;1.20;1.00
17146;DHT22;8688;54.444;18.444;2024-01-15T08:46:20;1.30;1.00
17146;DHT22;8688;54.444;18.444;2024-01-15T08:48:47;1.20;1.00
17146;DHT22;8688;54.444;18.444;2024-01-15T08:51:14;1.10;1.00
17146;DHT22;8688;54.444;18.444;2024-01-15T08:53:42;1.00;1.00
17146;DHT22;8688;54.444;18.444;2024-01-15T08:56:09;1.00;1.00
17146;DHT22;8688;54.444;18.444;2024-01-15T08:58:37;0.90;1.00
17146;DHT22;8688;54.444;18.444;2024-01-15T09:01:05;0.80;1.00
17146;DHT22;8688;54.444;18.444;2024-01-15T09:03:33;0.90;1.00
17146;DHT22;8688;54.444;18.444;2024-01-15T09:06:00;0.80;1.00
17146;DHT22;8688;54.444;18.444;2024-01-15T09:08:28;0.80;1.00
17146;DHT22;8688;54.444;18.444;2024-01-15T09:10:55;0.80;1.00
17146;DHT22;8688;54.444;18.444;2024-01-15T09:13:22;0.80;1.00
17146;DHT22;8688;54.444;18.444;2024-01-15T09:15:50;0.70;1.00
17146;DHT22;8688;54.444;18.444;2024-01-15T09:18:18;0.70;1.00
17146;DHT22;8688;54.444;18.444;2024-01-15T09:20:46;0.70;1.00
17146;DHT22;8688;54.444;18.444;2024-01-15T09:23:13;0.70;1.00
17146;DHT22;8688;54.444;18.444;2024-01-15T09:25:40;0.70;1.00
17146;DHT22;8688;54.444;18.444;2024-01-15T09:28:08;0.70;1.00
17146;DHT22;8688;54.444;18.444;2024-01-15T09:30:35;0.90;1.00
17146;DHT22;8688;54.444;18.444;2024-01-15T09:33:02;1.10;1.00
17146;DHT22;8688;54.444;18.444;2024-01-15T09:35:31;1.30;1.00
17146;DHT22;8688;54.444;18.444;2024-01-15T09:37:58;1.30;1.00
17146;DHT22;8688;54.444;18.444;2024-01-15T09:40:29;1.30;1.00
17146;DHT22;8688;54.444;18.444;2024-01-15T09:42:58;1.20;1.00
17146;DHT22;8688;54.444;18.444;2024-01-15T09:45:26;1.20;1.00
17146;DHT22;8688;54.444;18.444;2024-01-15T09:47:53;1.40;1.00
17146;DHT22;8688;54.444;18.444;2024-01-15T09:50:21;1.40;1.00
17146;DHT22;8688;54.444;18.444;2024-01-15T09:52:50;1.40;99.90
17146;DHT22;8688;54.444;18.444;2024-01-15T09:55:18;1.40;99.90
17146;DHT22;8688;54.444;18.444;2024-01-15T09:57:46;1.40;99.90
17146;DHT22;8688;54.444;18.444;2024-01-15T10:00:13;1.40;99.90
17146;DHT22;8688;54.444;18.444;2024-01-15T10:02:41;1.50;99.90
17146;DHT22;8688;54.444;18.444;2024-01-15T10:05:09;1.40;99.90
17146;DHT22;8688;54.444;18.444;2024-01-15T10:07:37;1.20;99.90
17146;DHT22;8688;54.444;18.444;2024-01-15T10:10:07;1.00;99.90
17146;DHT22;8688;54.444;18.444;2024-01-15T10:12:35;1.00;99.90
17146;DHT22;8688;54.444;18.444;2024-01-15T10:15:03;0.90;99.90
17146;DHT22;8688;54.444;18.444;2024-01-15T10:17:31;0.90;99.90
17146;DHT22;8688;54.444;18.444;2024-01-15T10:19:58;0.90;99.90
17146;DHT22;8688;54.444;18.444;2024-01-15T10:22:26;1.00;99.90
17146;DHT22;8688;54.444;18.444;2024-01-15T10:24:54;1.20;99.90
17146;DHT22;8688;54.444;18.444;2024-01-15T10:27:23;1.40;99.90
17146;DHT22;8688;54.444;18.444;2024-01-15T10:29:50;1.50;1.00
17146;DHT22;8688;54.444;18.444;2024-01-15T10:32:19;1.50;1.00
17146;DHT22;8688;54.444;18.444;2024-01-15T10:34:52;1.50;1.00
17146;DHT22;8688;54.444;18.444;2024-01-15T10:37:20;1.60;1.00
17146;DHT22;8688;54.444;18.444;2024-01-15T10:39:47;1.50;1.00
17146;DHT22;8688;54.444;18.444;2024-01-15T10:42:14;1.30;99.90
17146;DHT22;8688;54.444;18.444;2024-01-15T10:44:45;1.20;99.90
17146;DHT22;8688;54.444;18.444;2024-01-15T10:47:13;1.10;1.00
17146;DHT22;8688;54.444;18.444;2024-01-15T10:49:40;1.10;1.00
17146;DHT22;8688;54.444;18.444;2024-01-15T10:52:08;1.00;1.00
17146;DHT22;8688;54.444;18.444;2024-01-15T10:54:36;1.00;1.00
17146;DHT22;8688;54.444;18.444;2024-01-15T10:57:05;1.10;1.00
17146;DHT22;8688;54.444;18.444;2024-01-15T10:59:33;1.30;1.00
17146;DHT22;8688;54.444;18.444;2024-01-15T11:02:02;1.40;1.00
17146;DHT22;8688;54.444;18.444;2024-01-15T11:04:32;1.50;1.00
17146;DHT22;8688;54.444;18.444;2024-01-15T11:07:01;1.40;99.90
17146;DHT22;8688;54.444;18.444;2024-01-15T11:09:29;1.30;99.90
17146;DHT22;8688;54.444;18.444;2024-01-15T11:12:07;1.20;99.90
17146;DHT22;8688;54.444;18.444;2024-01-15T11:14:35;1.20;1.00
17146;DHT22;8688;54.444;18.444;2024-01-15T11:17:04;1.30;1.00
17146;DHT22;8688;54.444;18.444;2024-01-15T11:19:38;1.30;1.00
17146;DHT22;8688;54.444;18.444;2024-01-15T11:22:10;1.20;1.00
17146;DHT22;8688;54.444;18.444;2024-01-15T11:24:39;1.20;1.00
17146;DHT22;8688;54.444;18.444;2024-01-15T11:27:07;1.20;1.00
17146;DHT22;8688;54.444;18.444;2024-01-15T11:29:36;1.10;1.00
17146;DHT22;8688;54.444;18.444;2024-01-15T11:32:06;1.10;1.00
17146;DHT22;8688;54.444;18.444;2024-01-15T11:34:54;1.10;1.00
17146;DHT22;8688;54.444;18.444;2024-01-15T11:37:24;1.10;1.00
17146;DHT22;8688;54.444;18.444;2024-01-15T11:39:53;1.20;1.00
17146;DHT22;8688;54.444;18.444;2024-01-15T11:42:21;1.30;1.00
17146;DHT22;8688;54.444;18.444;2024-01-15T11:44:49;1.30;99.90
17146;DHT22;8688;54.444;18.444;2024-01-15T11:50:12;1.30;99.90
17146;DHT22;8688;54.444;18.444;2024-01-15T11:52:41;1.30;99.90
17146;DHT22;8688;54.444;18.444;2024-01-15T11:55:19;1.20;99.90
17146;DHT22;8688;54.444;18.444;2024-01-15T11:57:51;1.20;99.90
17146;DHT22;8688;54.444;18.444;2024-01-15T12:00:18;1.20;99.90
17146;DHT22;8688;54.444;18.444;2024-01-15T12:02:48;1.10;1.00
17146;DHT22;8688;54.444;18.444;2024-01-15T12:05:18;1.00;1.00
17146;DHT22;8688;54.444;18.444;2024-01-15T12:07:46;1.00;99.90
17146;DHT22;8688;54.444;18.444;2024-01-15T12:10:15;1.10;1.00
17146;DHT22;8688;54.444;18.444;2024-01-15T12:12:55;1.10;1.00
17146;DHT22;8688;54.444;18.444;2024-01-15T12:15:24;1.10;1.00
17146;DHT22;8688;54.444;18.444;2024-01-15T12:17:55;1.10;1.00
17146;DHT22;8688;54.444;18.444;2024-01-15T12:20:23;1.20;1.00
17146;DHT22;8688;54.444;18.444;2024-01-15T12:22:51;1.20;1.00
17146;DHT22;8688;54.444;18.444;2024-01-15T12:25:18;1.10;1.00
17146;DHT22;8688;54.444;18.444;2024-01-15T12:27:46;1.10;1.00
17146;DHT22;8688;54.444;18.444;2024-01-15T12:30:14;1.10;1.00
17146;DHT22;8688;54.444;18.444;2024-01-15T12:32:42;1.10;1.00
17146;DHT22;8688;54.444;18.444;2024-01-15T12:35:11;1.10;1.00
17146;DHT22;8688;54.444;18.444;2024-01-15T12:37:39;1.20;1.00
17146;DHT22;8688;54.444;18.444;2024-01-15T12:40:09;1.10;1.00
17146;DHT22;8688;54.444;18.444;2024-01-15T12:42:37;1.10;1.00
17146;DHT22;8688;54.444;18.444;2024-01-15T12:45:06;1.10;1.00
17146;DHT22;8688;54.444;18.444;2024-01-15T12:47:34;1.10;1.00
17146;DHT22;8688;54.444;18.444;2024-01-15T12:50:01;1.10;1.00
17146;DHT22;8688;54.444;18.444;2024-01-15T12:52:30;1.00;1.00
17146;DHT22;8688;54.444;18.444;2024-01-15T12:54:58;1.00;1.00
17146;DHT22;8688;54.444;18.444;2024-01-15T12:57:25;1.10;1.00
17146;DHT22;8688;54.444;18.444;2024-01-15T12:59:54;1.20;1.00
17146;DHT22;8688;54.444;18.444;2024-01-15T13:02:22;1.20;1.00
17146;DHT22;8688;54.444;18.444;2024-01-15T13:04:49;1.20;99.90
17146;DHT22;8688;54.444;18.444;2024-01-15T13:07:17;1.20;99.90
17146;DHT22;8688;54.444;18.444;2024-01-15T13:09:46;1.20;99.90
17146;DHT22;8688;54.444;18.444;2024-01-15T13:12:13;1.20;99.90
17146;DHT22;8688;54.444;18.444;2024-01-15T13:14:40;1.20;99.90
17146;DHT22;8688;54.444;18.444;2024-01-15T13:17:08;1.20;99.90
17146;DHT22;8688;54.444;18.444;2024-01-15T13:19:35;1.20;99.90
17146;DHT22;8688;54.444;18.444;2024-01-15T13:22:04;1.20;99.90
17146;DHT22;8688;54.444;18.444;2024-01-15T13:24:33;1.20;99.90
17146;DHT22;8688;54.444;18.444;2024-01-15T13:27:03;1.20;99.90
17146;DHT22;8688;54.444;18.444;2024-01-15T13:29:31;1.30;1.00
17146;DHT22;8688;54.444;18.444;2024-01-15T13:32:17;1.30;1.00
17146;DHT22;8688;54.444;18.444;2024-01-15T13:34:47;1.30;1.00
17146;DHT22;8688;54.444;18.444;2024-01-15T13:37:14;1.30;1.00
17146;DHT22;8688;54.444;18.444;2024-01-15T13:39:41;1.20;1.00
17146;DHT22;8688;54.444;18.444;2024-01-15T13:42:10;1.10;1.00
17146;DHT22;8688;54.444;18.444;2024-01-15T13:44:38;0.90;1.00
17146;DHT22;8688;54.444;18.444;2024-01-15T13:47:06;0.80;1.00
17146;DHT22;8688;54.444;18.444;2024-01-15T13:49:33;0.80;1.00
17146;DHT22;8688;54.444;18.444;2024-01-15T13:52:01;0.70;1.00
17146;DHT22;8688;54.444;18.444;2024-01-15T13:54:29;0.50;1.00
17146;DHT22;8688;54.444;18.444;2024-01-15T13:56:57;0.50;1.00
17146;DHT22;8688;54.444;18.444;2024-01-15T13:59:26;0.50;1.00
17146;DHT22;8688;54.444;18.444;2024-01-15T14:01:53;0.40;1.00
17146;DHT22;8688;54.444;18.444;2024-01-15T14:04:20;0.30;12.70
17146;DHT22;8688;54.444;18.444;2024-01-15T14:06:48;0.40;50.00
17146;DHT22;8688;54.444;18.444;2024-01-15T14:09:15;0.30;86.50
17146;DHT22;8688;54.444;18.444;2024-01-15T14:11:42;0.30;99.90
17146;DHT22;8688;54.444;18.444;2024-01-15T14:14:10;0.30;99.90
17146;DHT22;8688;54.444;18.444;2024-01-15T14:16:39;0.20;99.90
17146;DHT22;8688;54.444;18.444;2024-01-15T14:19:06;0.20;99.90
17146;DHT22;8688;54.444;18.444;2024-01-15T14:21:35;0.20;99.90
17146;DHT22;8688;54.444;18.444;2024-01-15T14:24:03;0.20;99.90
17146;DHT22;8688;54.444;18.444;2024-01-15T14:26:30;0.10;99.90
17146;DHT22;8688;54.444;18.444;2024-01-15T14:28:57;0.10;99.90
17146;DHT22;8688;54.444;18.444;2024-01-15T14:31:25;0.10;99.90
17146;DHT22;8688;54.444;18.444;2024-01-15T14:33:55;0.10;99.90
17146;DHT22;8688;54.444;18.444;2024-01-15T14:36:24;0.10;99.90
17146;DHT22;8688;54.444;18.444;2024-01-15T14:38:51;0.10;99.90
17146;DHT22;8688;54.444;18.444;2024-01-15T14:41:18;0.10;99.90
17146;DHT22;8688;54.444;18.444;2024-01-15T14:43:46;0.10;99.90
17146;DHT22;8688;54.444;18.444;2024-01-15T14:46:13;0.10;99.90
17146;DHT22;8688;54.444;18.444;2024-01-15T14:48:41;0.10;99.90
17146;DHT22;8688;54.444;18.444;2024-01-15T14:51:10;0.10;99.90
17146;DHT22;8688;54.444;18.444;2024-01-15T14:53:37;0.10;99.90
17146;DHT22;8688;54.444;18.444;2024-01-15T14:56:04;0.10;99.90
17146;DHT22;8688;54.444;18.444;2024-01-15T14:58:32;0.10;99.90
17146;DHT22;8688;54.444;18.444;2024-01-15T15:00:59;0.10;99.90
17146;DHT22;8688;54.444;18.444;2024-01-15T15:03:27;0.10;99.90
17146;DHT22;8688;54.444;18.444;2024-01-15T15:05:55;0.00;99.90
17146;DHT22;8688;54.444;18.444;2024-01-15T15:08:23;0.00;99.90
17146;DHT22;8688;54.444;18.444;2024-01-15T15:10:51;0.00;99.90
17146;DHT22;8688;54.444;18.444;2024-01-15T15:13:18;0.00;99.90
17146;DHT22;8688;54.444;18.444;2024-01-15T15:15:45;0.00;99.90
17146;DHT22;8688;54.444;18.444;2024-01-15T15:18:13;0.10;99.90
17146;DHT22;8688;54.444;18.444;2024-01-15T15:20:40;0.10;99.90
17146;DHT22;8688;54.444;18.444;2024-01-15T15:23:07;0.10;99.90
17146;DHT22;8688;54.444;18.444;2024-01-15T15:25:38;0.10;99.90
17146;DHT22;8688;54.444;18.444;2024-01-15T15:28:05;0.10;99.90
17146;DHT22;8688;54.444;18.444;2024-01-15T15:30:34;0.10;99.90
17146;DHT22;8688;54.444;18.444;2024-01-15T15:33:01;0.10;99.90
17146;DHT22;8688;54.444;18.444;2024-01-15T15:35:29;0.10;99.90
17146;DHT22;8688;54.444;18.444;2024-01-15T15:37:56;0.10;99.90
17146;DHT22;8688;54.444;18.444;2024-01-15T15:40:24;0.10;99.90
17146;DHT22;8688;54.444;18.444;2024-01-15T15:42:53;0.00;99.90
17146;DHT22;8688;54.444;18.444;2024-01-15T15:45:20;0.10;99.90
17146;DHT22;8688;54.444;18.444;2024-01-15T15:47:47;0.00;98.20
17146;DHT22;8688;54.444;18.444;2024-01-15T15:50:15;0.10;91.10
17146;DHT22;8688;54.444;18.444;2024-01-15T15:52:42;0.00;80.80
17146;DHT22;8688;54.444;18.444;2024-01-15T15:55:10;0.00;1.00
17146;DHT22;8688;54.444;18.444;2024-01-15T15:57:37;0.00;1.00
17146;DHT22;8688;54.444;18.444;2024-01-15T16:00:08;0.00;1.00
17146;DHT22;8688;54.444;18.444;2024-01-15T16:02:35;0.00;1.00
17146;DHT22;8688;54.444;18.444;2024-01-15T16:05:03;0.00;1.00